Time;durP1;ratioP1;P1;durP2;ratioP2;P2;SDS_P1;SDS_P2;PMS_P1;PMS_P2;Temp;Humidity;BMP_temperature;BMP_pressure;BME280_temperature;BME280_humidity;BME280_pressure;Samples;Min_cycle;Max_cycle;Signal;HPM_P1;HPM_P2
2022/06/13 00:04:37;;;;;;;3.97;3.58;;;15.40;99.90;;;;;;10263935;28;20234;-83
2022/06/13 00:09:59;;;;;;;6.35;4.30;;;15.40;99.90;;;;;;10276229;28;20253;-83
2022/06/13 00:15:20;;;;;;;7.22;4.15;;;15.30;99.90;;;;;;10263228;28;20213;-83
2022/06/13 00:20:41;;;;;;;7.05;4.78;;;15.30;99.90;;;;;;10250024;28;20253;-83
2022/06/13 00:26:04;;;;;;;11.60;7.03;;;15.20;99.90;;;;;;10286264;28;20233;-83
2022/06/13 00:31:26;;;;;;;13.77;8.57;;;15.10;99.90;;;;;;10260623;28;20220;-82
2022/06/13 00:36:47;;;;;;;12.82;7.82;;;15.10;99.90;;;;;;10262580;28;20220;-82
2022/06/13 00:42:10;;;;;;;17.20;9.32;;;15.10;99.90;;;;;;10262506;28;20303;-82
2022/06/13 00:47:31;;;;;;;18.58;9.65;;;15.10;99.90;;;;;;10261432;28;20391;-83
2022/06/13 00:53:00;;;;;;;18.67;9.52;;;15.10;99.90;;;;;;10261625;28;20249;-83
2022/06/13 00:58:21;;;;;;;15.38;8.88;;;15.00;99.90;;;;;;10261703;28;20282;-83
2022/06/13 01:03:44;;;;;;;14.23;8.57;;;15.10;99.90;;;;;;10262333;28;20236;-83
2022/06/13 01:09:08;;;;;;;13.35;8.18;;;15.20;99.90;;;;;;10243092;28;20200;-83
2022/06/13 01:14:47;;;;;;;11.57;7.35;;;15.20;99.90;;;;;;10275141;28;20201;-83
2022/06/13 01:20:31;;;;;;;14.75;8.55;;;15.30;99.90;;;;;;10274881;28;20198;-83
2022/06/13 01:26:11;;;;;;;13.73;8.15;;;15.20;99.90;;;;;;10267637;28;20200;-83
2022/06/13 01:31:54;;;;;;;14.40;8.10;;;15.00;99.90;;;;;;10284311;28;20198;-83
2022/06/13 01:37:18;;;;;;;10.82;6.57;;;15.00;99.90;;;;;;10247476;28;20427;-83
2022/06/13 01:42:55;;;;;;;9.95;6.70;;;14.80;99.90;;;;;;10261127;28;20226;-83
2022/06/13 01:48:42;;;;;;;10.10;5.97;;;14.70;99.90;;;;;;10247255;28;20212;-82
2022/06/13 01:54:17;;;;;;;8.20;4.90;;;;;;;;;;10246670;28;20241;-83
2022/06/13 01:59:49;;;;;;;6.07;4.35;;;14.60;99.90;;;;;;10264345;28;20280;-83
2022/06/13 02:05:22;;;;;;;5.05;4.18;;;14.60;99.90;;;;;;10268409;28;20321;-83
2022/06/13 02:10:52;;;;;;;8.27;4.50;;;14.50;99.90;;;;;;10223351;29;20212;-82
2022/06/13 02:16:24;;;;;;;6.38;4.13;;;14.40;99.90;;;;;;10266017;29;20257;-82
2022/06/13 02:21:55;;;;;;;4.85;4.13;;;14.30;99.90;;;;;;10276275;28;20241;-83
2022/06/13 02:27:19;;;;;;;6.90;5.07;;;14.20;99.90;;;;;;10293024;28;20497;-84
2022/06/13 02:32:57;;;;;;;6.22;4.28;;;14.10;99.90;;;;;;10267642;28;20528;-83
2022/06/13 02:38:33;;;;;;;5.18;4.10;;;14.10;99.90;;;;;;10267239;28;20278;-83
2022/06/13 02:44:25;;;;;;;6.05;4.53;;;14.20;99.90;;;;;;10253707;28;20237;-82
2022/06/13 02:49:54;;;;;;;6.70;5.40;;;14.20;99.90;;;;;;10281771;28;20193;-83
2022/06/13 02:55:18;;;;;;;9.18;5.45;;;14.20;99.90;;;;;;10252809;28;20400;-83
2022/06/13 03:01:04;;;;;;;8.88;5.75;;;14.20;99.90;;;;;;10280278;28;20198;-83
2022/06/13 03:06:35;;;;;;;7.35;4.45;;;14.10;99.90;;;;;;10266105;28;20212;-83
2022/06/13 03:12:04;;;;;;;6.57;4.72;;;14.10;99.90;;;;;;10296537;28;20404;-82
2022/06/13 03:17:46;;;;;;;5.57;3.95;;;14.10;99.90;;;;;;10266599;28;20212;-83
2022/06/13 03:23:41;;;;;;;7.65;4.35;;;14.10;99.90;;;;;;10295251;28;20232;-83
2022/06/13 03:29:33;;;;;;;5.90;4.43;;;14.10;99.90;;;;;;10278906;28;20212;-83
2022/06/13 03:35:00;;;;;;;5.95;4.05;;;14.00;99.90;;;;;;10275779;28;20233;-83
2022/06/13 03:40:27;;;;;;;4.65;3.97;;;14.00;99.90;;;;;;10265362;29;20212;-83
2022/06/13 03:45:55;;;;;;;4.22;3.13;;;14.00;99.90;;;;;;10264818;28;20551;-83
2022/06/13 03:51:34;;;;;;;5.55;3.75;;;14.00;99.90;;;;;;10252068;28;20584;-82
2022/06/13 03:57:17;;;;;;;5.57;3.88;;;14.10;99.90;;;;;;10267423;28;20483;-83
2022/06/13 04:02:41;;;;;;;8.32;3.95;;;14.30;99.90;;;;;;10277623;28;20247;-83
2022/06/13 04:08:04;;;;;;;5.15;3.50;;;14.60;99.90;;;;;;10264886;28;20209;-82
2022/06/13 04:13:42;;;;;;;5.03;3.22;;;14.80;99.90;;;;;;10263975;28;20214;-82
2022/06/13 04:19:12;;;;;;;7.38;3.83;;;14.90;99.90;;;;;;10263368;28;20206;-83
2022/06/13 04:24:54;;;;;;;3.85;3.10;;;15.00;99.90;;;;;;10293162;28;20432;-82
2022/06/13 04:30:19;;;;;;;5.97;3.10;;;15.20;99.90;;;;;;10277483;28;20560;-83
2022/06/13 04:35:42;;;;;;;7.68;3.72;;;15.20;99.90;;;;;;10263596;28;20229;-82
2022/06/13 04:41:05;;;;;;;7.15;4.00;;;15.30;99.90;;;;;;10249902;28;20479;-83
2022/06/13 04:46:28;;;;;;;7.78;4.25;;;15.30;99.90;;;;;;10264637;28;20218;-83
2022/06/13 04:51:51;;;;;;;10.95;4.70;;;15.30;99.90;;;;;;10248932;28;20311;-83
2022/06/13 04:57:14;;;;;;;8.57;4.38;;;15.30;99.90;;;;;;10275660;28;20242;-82
2022/06/13 05:02:49;;;;;;;9.93;4.03;;;15.40;99.90;;;;;;10275342;28;20391;-83
2022/06/13 05:08:13;;;;;;;8.23;3.47;;;15.40;99.90;;;;;;10258990;28;20214;-82
2022/06/13 05:13:34;;;;;;;7.20;3.90;;;15.50;99.90;;;;;;10261685;28;20236;-83
2022/06/13 05:19:01;;;;;;;6.43;3.85;;;15.60;99.90;;;;;;10261044;28;20449;-82
2022/06/13 05:24:51;;;;;;;8.35;4.78;;;15.60;99.90;;;;;;10261567;28;20236;-83
2022/06/13 05:30:14;;;;;;;14.57;6.35;;;15.20;99.90;;;;;;10274608;28;20445;-83
2022/06/13 05:35:35;;;;;;;7.93;4.35;;;15.00;99.90;;;;;;10247484;28;20275;-83
2022/06/13 05:40:57;;;;;;;8.95;4.43;;;14.80;99.90;;;;;;10247984;28;20204;-83
2022/06/13 05:46:31;;;;;;;6.72;3.65;;;14.70;99.90;;;;;;10274902;28;20200;-84
2022/06/13 05:51:52;;;;;;;10.77;4.60;;;14.70;99.90;;;;;;10247697;28;20208;-84
2022/06/13 05:57:16;;;;;;;7.40;3.85;;;14.80;99.90;;;;;;10260854;28;20238;-83
2022/06/13 06:02:41;;;;;;;6.32;3.45;;;14.90;99.90;;;;;;10260292;28;20238;-83
2022/06/13 06:08:02;;;;;;;10.48;3.67;;;15.00;99.90;;;;;;10260612;28;20253;-82
2022/06/13 06:13:25;;;;;;;6.80;3.40;;;15.00;99.90;;;;;;10274881;28;20276;-86
2022/06/13 06:18:47;;;;;;;8.18;5.70;;;15.20;99.90;;;;;;10260790;28;20225;-85
2022/06/13 06:24:09;;;;;;;10.45;5.60;;;15.20;99.90;;;;;;10260577;28;20288;-85
2022/06/13 06:29:30;;;;;;;9.02;5.35;;;15.40;99.90;;;;;;10295564;28;20514;-85
2022/06/13 06:34:51;;;;;;;9.25;4.70;;;15.60;99.90;;;;;;10247165;28;20407;-86
2022/06/13 06:40:15;;;;;;;9.95;5.43;;;16.10;99.90;;;;;;10288219;28;20420;-83
2022/06/13 06:45:37;;;;;;;6.85;4.30;;;16.50;99.90;;;;;;10293271;28;20223;-87
2022/06/13 06:50:59;;;;;;;12.05;4.63;;;16.80;99.90;;;;;;10274414;28;20276;-84
2022/06/13 07:02:03;;;;;;;10.80;4.18;;;17.10;99.90;;;;;;10295013;28;20225;-83
2022/06/13 07:07:24;;;;;;;8.38;3.53;;;17.40;99.90;;;;;;10284243;28;20206;-86
2022/06/13 07:12:46;;;;;;;8.98;3.20;;;17.50;96.20;;;;;;10266793;28;20209;-81
2022/06/13 07:18:08;;;;;;;8.82;3.17;;;17.50;96.50;;;;;;10265886;28;20216;-86
2022/06/13 07:23:30;;;;;;;6.35;2.75;;;17.50;61.90;;;;;;10266091;28;20237;-87
2022/06/13 07:28:51;;;;;;;9.00;2.85;;;18.00;74.90;;;;;;10232719;28;20312;-89
2022/06/13 07:34:19;;;;;;;5.63;2.05;;;18.80;1.00;;;;;;10260841;28;20203;-85
2022/06/13 07:39:41;;;;;;;6.70;2.40;;;19.20;1.00;;;;;;10260819;29;20211;-88
2022/06/13 07:45:03;;;;;;;5.97;2.35;;;19.80;1.00;;;;;;10248004;28;20235;-85
2022/06/13 07:50:26;;;;;;;4.60;2.28;;;20.10;1.00;;;;;;10228833;29;20199;-84
2022/06/13 07:55:48;;;;;;;4.05;2.05;;;19.60;1.00;;;;;;10225448;28;20309;-83
2022/06/13 08:01:11;;;;;;;6.10;2.30;;;19.10;1.00;;;;;;10246393;28;20238;-84
2022/06/13 08:06:32;;;;;;;6.05;2.20;;;18.80;1.00;;;;;;10248827;28;20235;-87
2022/06/13 08:11:53;;;;;;;6.60;2.00;;;19.00;1.00;;;;;;10258081;28;20203;-84
2022/06/13 08:17:18;;;;;;;6.78;2.65;;;19.20;1.00;;;;;;10271112;28;20206;-82
2022/06/13 08:22:47;;;;;;;7.50;1.98;;;19.30;1.00;;;;;;10298378;28;20218;-84
2022/06/13 08:28:10;;;;;;;6.32;2.00;;;19.40;1.00;;;;;;10270121;28;20225;-83
2022/06/13 08:33:33;;;;;;;4.57;1.90;;;19.30;1.00;;;;;;10257364;28;20569;-81
2022/06/13 08:38:54;;;;;;;4.68;2.20;;;19.20;1.00;;;;;;10270886;28;20279;-81
2022/06/13 08:44:28;;;;;;;5.00;2.00;;;19.30;1.00;;;;;;10256657;28;20252;-81
2022/06/13 08:50:16;;;;;;;4.32;2.00;;;19.30;1.00;;;;;;10256116;28;20207;-81
2022/06/13 08:56:08;;;;;;;6.72;2.22;;;19.10;1.00;;;;;;10224770;29;20235;-81
2022/06/13 09:01:36;;;;;;;5.28;1.90;;;18.70;1.00;;;;;;10270246;28;20207;-82
2022/06/13 09:07:08;;;;;;;6.47;2.05;;;18.70;1.00;;;;;;10270050;28;20199;-80
2022/06/13 09:12:36;;;;;;;6.65;1.90;;;18.90;1.00;;;;;;10270352;28;20223;-81
2022/06/13 09:18:18;;;;;;;2.05;1.42;;;19.30;1.00;;;;;;10255886;28;20207;-80
2022/06/13 09:24:23;;;;;;;6.05;1.90;;;19.70;1.00;;;;;;10255617;28;20239;-83
2022/06/13 09:30:02;;;;;;;7.28;2.17;;;20.30;1.00;;;;;;10298099;28;20224;-82
2022/06/13 09:35:33;;;;;;;5.80;1.90;;;21.60;1.00;;;;;;10296609;28;20489;-86
2022/06/13 09:41:07;;;;;;;4.10;1.20;;;22.40;1.00;;;;;;10273386;28;20354;-85
2022/06/13 09:46:49;;;;;;;4.70;1.40;;;22.80;1.00;;;;;;10256583;29;20577;-86
2022/06/13 09:52:35;;;;;;;4.10;1.45;;;22.80;1.00;;;;;;10256398;29;20243;-82
2022/06/13 09:58:13;;;;;;;4.25;2.00;;;22.70;1.00;;;;;;10255778;29;20203;-85
2022/06/13 10:10:42;;;;;;;3.42;1.45;;;24.10;99.90;;;;;;10172367;29;20835;-83
2022/06/13 10:16:32;;;;;;;1.48;0.90;;;24.40;99.90;;;;;;10187813;29;20196;-84
2022/06/13 10:22:16;;;;;;;4.63;1.00;;;22.40;99.90;;;;;;10194200;29;20277;-83
2022/06/13 10:27:49;;;;;;;2.53;1.17;;;20.50;1.00;;;;;;10182054;29;20597;-84
2022/06/13 10:33:44;;;;;;;3.38;1.20;;;18.80;1.00;;;;;;10181324;29;20531;-84
2022/06/13 10:39:07;;;;;;;4.70;1.73;;;18.60;99.90;;;;;;10158811;29;20214;-84
2022/06/13 10:44:29;;;;;;;5.30;1.73;;;18.20;1.00;;;;;;10173946;29;20254;-83
2022/06/13 10:50:01;;;;;;;6.68;3.65;;;17.80;1.00;;;;;;10227146;29;20293;-82
2022/06/13 10:55:25;;;;;;;3.70;1.70;;;17.50;1.00;;;;;;10261214;28;20234;-82
2022/06/13 11:01:22;;;;;;;3.47;1.48;;;17.60;1.00;;;;;;10261250;28;20202;-85
2022/06/13 11:06:52;;;;;;;5.53;1.63;;;17.70;1.00;;;;;;10276170;28;20205;-81
2022/06/13 11:12:33;;;;;;;2.40;1.48;;;17.80;1.00;;;;;;10280101;28;20275;-81
2022/06/13 11:23:47;;;;;;;6.30;2.20;;;17.60;26.10;;;;;;10273888;28;20222;-81
2022/06/13 11:29:16;;;;;;;4.85;1.85;;;17.60;19.90;;;;;;10258897;28;20213;-79
2022/06/13 11:34:39;;;;;;;6.05;1.80;;;17.70;20.30;;;;;;10259592;28;20213;-81
2022/06/13 11:40:00;;;;;;;4.28;1.95;;;17.90;1.80;;;;;;10246291;28;20222;-80
2022/06/13 11:45:27;;;;;;;4.07;2.00;;;18.00;1.00;;;;;;10245657;28;20249;-82
2022/06/13 11:50:58;;;;;;;6.53;2.10;;;18.00;1.00;;;;;;10274167;28;20496;-80
2022/06/13 11:56:30;;;;;;;5.28;2.35;;;17.90;9.20;;;;;;10272424;28;20250;-84
2022/06/13 12:01:56;;;;;;;5.95;2.65;;;18.00;5.40;;;;;;10250431;28;20193;-81
2022/06/13 12:07:30;;;;;;;4.72;2.28;;;18.20;1.00;;;;;;10285593;28;20246;-81
2022/06/13 12:12:52;;;;;;;6.82;2.58;;;18.30;1.00;;;;;;10244598;29;20551;-84
2022/06/13 12:18:43;;;;;;;8.07;2.40;;;18.30;1.00;;;;;;10273348;28;20225;-83
2022/06/13 12:24:21;;;;;;;7.03;2.72;;;19.00;1.00;;;;;;10273088;28;20227;-84
2022/06/13 12:30:07;;;;;;;6.90;2.83;;;19.40;1.00;;;;;;10270162;28;20276;-85
2022/06/13 12:36:04;;;;;;;6.68;3.38;;;19.20;1.00;;;;;;10271307;28;20277;-82
2022/06/13 12:41:36;;;;;;;3.65;2.15;;;19.00;1.00;;;;;;10162260;29;20213;-82
2022/06/13 12:47:19;;;;;;;5.22;2.00;;;19.10;1.00;;;;;;10122479;29;20493;-89
2022/06/13 12:52:46;;;;;;;5.25;2.00;;;18.90;1.00;;;;;;10147137;29;20216;-89
2022/06/13 12:58:26;;;;;;;8.70;2.45;;;19.20;1.00;;;;;;10150077;29;20258;-87
2022/06/13 13:04:09;;;;;;;8.50;2.33;;;19.60;1.00;;;;;;10122964;29;20466;-91
2022/06/13 13:09:38;;;;;;;5.10;1.98;;;19.40;1.00;;;;;;10122117;29;20268;-85
2022/06/13 13:15:30;;;;;;;7.47;2.13;;;19.40;1.00;;;;;;10188755;28;20254;-87
2022/06/13 13:21:23;;;;;;;9.75;3.53;;;19.30;1.00;;;;;;10255993;29;20199;-86
2022/06/13 13:27:07;;;;;;;16.58;2.70;;;19.30;1.00;;;;;;10263181;28;20242;-86
2022/06/13 13:32:31;;;;;;;6.47;2.03;;;19.70;1.00;;;;;;10272533;28;20215;-87
2022/06/13 13:38:35;;;;;;;12.23;2.58;;;19.60;1.00;;;;;;10270936;28;20266;-86
2022/06/13 13:44:12;;;;;;;8.82;1.83;;;19.90;1.00;;;;;;10257768;28;20230;-85
2022/06/13 13:49:40;;;;;;;8.05;2.08;;;20.00;1.00;;;;;;10256220;28;20207;-81
2022/06/13 13:55:07;;;;;;;5.90;2.00;;;19.70;1.00;;;;;;10273363;28;20253;-83
2022/06/13 14:00:35;;;;;;;8.32;1.98;;;19.70;1.00;;;;;;10277939;28;20199;-81
2022/06/13 14:06:14;;;;;;;8.18;2.33;;;19.40;99.90;;;;;;10259813;28;20482;-87
2022/06/13 14:12:08;;;;;;;7.32;2.00;;;18.80;1.00;;;;;;10239410;28;20270;-91
2022/06/13 14:17:52;;;;;;;6.40;2.20;;;18.70;1.00;;;;;;10251576;28;20234;-84
2022/06/13 14:23:20;;;;;;;7.93;2.40;;;18.80;1.00;;;;;;10260544;28;20396;-84
2022/06/13 14:28:52;;;;;;;8.75;2.72;;;18.60;1.00;;;;;;10262517;28;20239;-90
2022/06/13 14:40:08;;;;;;;6.47;2.00;;;18.80;1.00;;;;;;10264109;28;20207;-84
2022/06/13 14:46:00;;;;;;;4.15;1.73;;;18.90;1.00;;;;;;10249169;28;20301;-82
2022/06/13 14:51:26;;;;;;;8.02;2.30;;;18.80;1.00;;;;;;10265182;29;20223;-83
2022/06/13 14:56:53;;;;;;;5.88;2.90;;;18.70;1.00;;;;;;10263418;28;20305;-80
2022/06/13 15:02:26;;;;;;;4.68;1.65;;;18.50;1.00;;;;;;10235004;29;20231;-94
2022/06/13 15:07:56;;;;;;;3.85;1.42;;;18.40;1.00;;;;;;10264278;28;20201;-84
2022/06/13 15:13:30;;;;;;;4.28;1.27;;;18.20;1.00;;;;;;10241184;28;20210;-83
2022/06/13 15:19:03;;;;;;;6.97;2.20;;;18.40;1.00;;;;;;10279686;28;20270;-84
2022/06/13 15:24:24;;;;;;;5.60;1.60;;;18.50;1.00;;;;;;10281041;28;20302;-84
2022/06/13 15:30:05;;;;;;;3.03;1.30;;;18.60;99.90;;;;;;10278800;28;20398;-83
2022/06/13 15:35:43;;;;;;;5.35;1.30;;;18.50;99.90;;;;;;10276232;28;20202;-83
2022/06/13 15:41:10;;;;;;;3.22;1.05;;;18.40;99.90;;;;;;10264723;28;20206;-84
2022/06/13 15:46:38;;;;;;;7.00;1.40;;;18.40;1.00;;;;;;10279401;28;20522;-84
2022/06/13 15:52:03;;;;;;;4.50;1.63;;;18.40;1.00;;;;;;10252453;28;20227;-84
2022/06/13 15:57:26;;;;;;;3.63;1.58;;;18.30;99.90;;;;;;10265003;28;20250;-84
2022/06/13 16:02:48;;;;;;;2.80;1.42;;;18.00;1.00;;;;;;10264483;28;20227;-83
2022/06/13 16:08:15;;;;;;;7.53;1.75;;;17.80;1.00;;;;;;10278307;28;20500;-83
2022/06/13 16:13:54;;;;;;;5.68;1.55;;;17.80;1.00;;;;;;10277858;28;20209;-82
2022/06/13 16:19:27;;;;;;;4.28;1.50;;;17.80;1.00;;;;;;10263613;28;20229;-83
2022/06/13 16:24:54;;;;;;;3.50;1.38;;;17.60;1.00;;;;;;10250457;28;20247;-83
2022/06/13 16:30:16;;;;;;;8.13;1.17;;;17.60;1.00;;;;;;10243714;29;20505;-82
2022/06/13 16:35:45;;;;;;;2.92;1.13;;;17.70;1.00;;;;;;10249660;28;20237;-83
2022/06/13 16:41:33;;;;;;;2.95;1.30;;;17.70;1.00;;;;;;10249163;28;20527;-83
2022/06/13 16:46:59;;;;;;;4.20;1.55;;;17.60;1.00;;;;;;10263273;28;20533;-83
2022/06/13 16:52:30;;;;;;;4.38;1.15;;;17.60;99.90;;;;;;10249336;28;20199;-83
2022/06/13 16:57:52;;;;;;;4.00;1.23;;;17.60;99.90;;;;;;10262580;28;20270;-83
2022/06/13 17:03:15;;;;;;;7.97;1.42;;;17.50;99.90;;;;;;10262911;28;20233;-83
2022/06/13 17:08:58;;;;;;;3.42;1.27;;;17.40;1.00;;;;;;10276126;28;20206;-84
2022/06/13 17:15:00;;;;;;;4.30;1.55;;;17.10;99.90;;;;;;10262262;28;20524;-83
2022/06/13 17:20:27;;;;;;;4.22;1.58;;;17.10;99.90;;;;;;10275845;28;20419;-84
2022/06/13 17:37:10;;;;;;;4.10;1.60;;;16.90;1.00;;;;;;10275163;28;20201;-83
2022/06/13 17:42:32;;;;;;;5.90;1.40;;;16.90;99.90;;;;;;10275148;28;20205;-84
2022/06/13 17:47:54;;;;;;;12.02;2.03;;;16.80;1.00;;;;;;10261492;28;20408;-83
2022/06/13 17:53:15;;;;;;;6.75;1.83;;;16.60;1.00;;;;;;10247860;28;20542;-84
2022/06/13 17:58:37;;;;;;;3.97;1.20;;;16.40;1.00;;;;;;10261315;28;20198;-83
2022/06/13 18:04:00;;;;;;;1.58;0.98;;;16.20;1.00;;;;;;10274793;28;20234;-84
2022/06/13 18:09:24;;;;;;;2.65;1.10;;;16.10;1.00;;;;;;10275148;28;20495;-85
2022/06/13 18:14:45;;;;;;;2.45;1.33;;;16.10;1.00;;;;;;10260708;28;20318;-83
2022/06/13 18:20:09;;;;;;;5.25;1.23;;;16.00;99.90;;;;;;10261202;28;20197;-83
2022/06/13 18:25:30;;;;;;;4.70;1.40;;;15.90;99.90;;;;;;10261505;28;20237;-84
2022/06/13 18:30:54;;;;;;;6.20;1.38;;;15.80;1.00;;;;;;10269025;28;20214;-83
2022/06/13 18:36:16;;;;;;;2.95;1.27;;;15.70;99.90;;;;;;10267791;28;20229;-84
2022/06/13 18:41:37;;;;;;;6.57;1.67;;;15.70;1.00;;;;;;10256242;28;20228;-83
2022/06/13 18:47:00;;;;;;;2.17;1.15;;;15.60;99.90;;;;;;10271024;28;20465;-84
2022/06/13 18:52:21;;;;;;;3.90;1.42;;;15.60;1.00;;;;;;10269201;28;20200;-83
2022/06/13 18:57:43;;;;;;;5.68;1.48;;;15.50;1.00;;;;;;10269108;28;20256;-81
2022/06/13 19:03:17;;;;;;;5.70;1.40;;;15.40;1.00;;;;;;10270682;28;20542;-83
2022/06/13 19:08:39;;;;;;;4.93;1.85;;;15.10;99.90;;;;;;10269739;28;20465;-82
2022/06/13 19:14:04;;;;;;;6.97;1.33;;;15.10;1.00;;;;;;10268800;28;20205;-82
2022/06/13 19:19:27;;;;;;;5.78;1.60;;;15.00;1.00;;;;;;10256926;28;20261;-83
2022/06/13 19:24:48;;;;;;;2.53;1.27;;;14.90;1.00;;;;;;10267324;28;20225;-82
2022/06/13 19:30:13;;;;;;;3.35;1.50;;;14.90;1.00;;;;;;10219869;28;20528;-82
2022/06/13 19:35:42;;;;;;;8.32;1.95;;;14.80;99.90;;;;;;10268757;28;20206;-82
2022/06/13 19:41:07;;;;;;;6.15;1.55;;;14.80;99.90;;;;;;10282099;28;20194;-81
2022/06/13 19:46:29;;;;;;;5.00;1.73;;;14.70;99.90;;;;;;10281575;28;20239;-83
2022/06/13 19:51:51;;;;;;;7.28;1.63;;;14.60;99.90;;;;;;10276956;28;20335;-81
2022/06/13 19:57:13;;;;;;;8.88;1.60;;;14.60;1.00;;;;;;10283720;28;20280;-82
2022/06/13 20:02:40;;;;;;;4.78;1.48;;;14.50;1.00;;;;;;10280397;28;20195;-82
2022/06/13 20:13:45;;;;;;;5.07;1.75;;;14.30;1.00;;;;;;10305281;28;20204;-83
2022/06/13 20:19:25;;;;;;;3.15;1.17;;;14.20;1.00;;;;;;10294169;28;20200;-83
2022/06/13 20:24:46;;;;;;;7.13;1.38;;;14.10;1.00;;;;;;10307116;28;20237;-83
2022/06/13 20:30:08;;;;;;;1.95;1.20;;;14.10;1.00;;;;;;10267749;28;20272;-84
2022/06/13 20:35:30;;;;;;;3.67;1.20;;;14.00;1.00;;;;;;10267122;28;20430;-83
2022/06/13 20:40:51;;;;;;;6.30;2.00;;;14.00;1.00;;;;;;10267122;28;20458;-83
2022/06/13 20:46:15;;;;;;;3.55;1.40;;;14.00;1.00;;;;;;10262431;28;20284;-83
2022/06/13 20:51:37;;;;;;;4.20;1.55;;;13.90;1.00;;;;;;10262725;28;20211;-82
2022/06/13 20:56:59;;;;;;;2.50;1.23;;;13.80;1.00;;;;;;10275780;28;20259;-83
2022/06/13 21:02:22;;;;;;;5.25;1.88;;;13.70;1.00;;;;;;10248774;28;20226;-83
2022/06/13 21:07:44;;;;;;;3.90;1.70;;;13.60;1.00;;;;;;10261841;28;20232;-82
2022/06/13 21:13:11;;;;;;;4.15;1.77;;;13.50;1.00;;;;;;10261444;28;20388;-82
2022/06/13 21:18:32;;;;;;;5.38;1.63;;;13.50;1.00;;;;;;10274677;28;20209;-82
2022/06/13 21:23:55;;;;;;;5.03;1.73;;;13.50;1.00;;;;;;10248893;28;20247;-84
2022/06/13 21:29:17;;;;;;;5.40;2.05;;;13.40;1.00;;;;;;10262473;28;20203;-83
2022/06/13 21:34:40;;;;;;;5.68;1.73;;;13.40;1.00;;;;;;10274618;28;20490;-84
2022/06/13 21:40:02;;;;;;;3.13;1.55;;;13.30;1.00;;;;;;10274951;28;20204;-83
2022/06/13 21:45:25;;;;;;;3.33;1.75;;;13.30;1.00;;;;;;10260628;28;20486;-84
2022/06/13 21:50:49;;;;;;;7.35;2.70;;;13.20;1.00;;;;;;10274546;28;20433;-83
2022/06/13 21:56:12;;;;;;;6.68;2.33;;;13.20;1.00;;;;;;10247280;28;20610;-83
2022/06/13 22:07:57;;;;;;;6.13;2.25;;;13.00;1.00;;;;;;10260672;28;20258;-83
2022/06/13 22:13:20;;;;;;;3.85;1.65;;;12.90;12.70;;;;;;10262396;28;20208;-83
2022/06/13 22:18:42;;;;;;;7.67;2.30;;;12.80;18.90;;;;;;10287789;28;20206;-82
2022/06/13 22:24:04;;;;;;;5.35;2.10;;;12.90;22.90;;;;;;10281477;28;20254;-83
2022/06/13 22:29:25;;;;;;;6.20;2.17;;;12.90;19.00;;;;;;10255236;28;20560;-83
2022/06/13 22:34:48;;;;;;;4.55;1.92;;;12.80;28.50;;;;;;10243995;29;20198;-82
2022/06/13 22:40:10;;;;;;;6.72;1.75;;;12.90;37.90;;;;;;10228029;29;20202;-84
2022/06/13 22:45:32;;;;;;;3.92;1.40;;;12.80;38.20;;;;;;10256757;28;20303;-83
2022/06/13 22:50:55;;;;;;;6.80;1.83;;;12.70;54.50;;;;;;10257016;28;20389;-83
2022/06/13 22:56:16;;;;;;;4.55;1.63;;;12.70;66.20;;;;;;10256462;28;20243;-83
2022/06/13 23:01:37;;;;;;;4.40;1.60;;;12.70;76.00;;;;;;10240797;29;20193;-83
2022/06/13 23:07:00;;;;;;;6.68;1.63;;;12.70;77.30;;;;;;10226727;29;20232;-83
2022/06/13 23:12:21;;;;;;;4.90;1.33;;;12.70;73.60;;;;;;10268921;28;20214;-82
2022/06/13 23:17:43;;;;;;;2.35;1.25;;;12.70;88.80;;;;;;10279556;28;20209;-83
2022/06/13 23:23:04;;;;;;;3.42;1.33;;;12.70;91.30;;;;;;10252633;28;20209;-83
2022/06/13 23:28:25;;;;;;;3.28;1.50;;;12.60;96.50;;;;;;10251681;28;20204;-82
2022/06/13 23:33:47;;;;;;;4.60;1.65;;;12.60;99.90;;;;;;10265319;28;20253;-83
2022/06/13 23:39:09;;;;;;;2.83;1.33;;;12.60;99.90;;;;;;10279531;28;20453;-82
2022/06/13 23:44:33;;;;;;;1.37;1.10;;;12.50;99.90;;;;;;10267916;28;20529;-83
2022/06/13 23:49:55;;;;;;;4.65;1.60;;;12.50;99.90;;;;;;10278369;28;20253;-83
2022/06/13 23:55:16;;;;;;;4.32;1.45;;;12.50;99.90;;;;;;10264328;28;20588;-83
